Sarasota, FL

07:23 EDT le 16 septembre 2014 (GMT -0400)
THE MEADOWS | Change Station
CLOSE
Current Station
Stations météorologiques personnelles
Location: Sarasota, FL
Altitude: 39 ft
Stations météo à proximité

Alt. 39 ft 27.36 °N, 82.47 °W | Updated 14 minutes ago

Ciel dégagé
Ciel dégagé
73.8 ° F
Paraît 70 ° F
N
0.0
Vent Variable Vent de SE
Gusts 0.0 mph

Aujourd'hui
Haut(e) -- | Bas -- ° F
--% Risque de précip.
Hier
Haut(e) -- | Bas -- ° F
Precip. -- pouce
7:15 AM 7:33 PM
Dernier quartier, 46% visible
Pression 30.07 pouce
Visibilité 10.0 Miles terrestres
Nuages Ciel dégagé
indice de chaleur 70 ° F
Point de rosée 73 ° F
Humidité 97%
Précipitations 0.00 pouce
Profondeur de la couche neigeuse Non disponible.
UV 0 sur 12
Pollen 6.70 sur 12
Qualité de l'air Non disponible.
Flu Activity Non disponible.
METAR KSRQ 161053Z 00000KT 10SM CLR 23/22 A3007 RMK AO2 SLP183 T02330222

More Conditions Fewer Conditions

Pression 30.07 pouce
Visibilité 10.0 Miles terrestres
Nuages Ciel dégagé
indice de chaleur 70 ° F
Point de rosée 73 ° F
Humidité 97%
Précipitations 0.00 pouce
Profondeur de la couche neigeuse Non disponible.
UV 0 sur 12
Pollen 6.70 sur 12
Qualité de l'air Non disponible.
Flu Activity Non disponible.
METAR KSRQ 161053Z 00000KT 10SM CLR 23/22 A3007 RMK AO2 SLP183 T02330222

More Conditions Fewer Conditions

10-Day Weather Forecast

Almanac

Astronomie

Sep. 16, 2014 Lever Coucher
Temps réel 07:15 EDT 19:33 EDT
Crépuscule civil 06:52 EDT 19:56 EDT
Crépuscule nautique 06:25 EDT 20:23 EDT
Crépuscule astronomique 05:57 EDT 20:51 EDT
Lune 00:47 EDT 14:33 EDT
Durée de lumière visible 13h 04m
Longueur du jour
12h 17m
Tomorrow will be 1m 37s shorter.
Dernier quartier, 46% of the Moon is Illuminated
Aujourd'hui
Dernier quartier
Sep 24
Nouveau
Oct 1
Premier quartier
Oct 8
Pleine lune
Oct 15
Dernier quartier

Extrêmes aujourd'hui

State Highs State Lows

Community

WunderPhotos

Upload Photos

1,753,724 Photos téléchargées !

WunderBlogs® & News

By Dr. Jeff Masters
Director of Meteorology, Weather Underground
By Kari Strenfel
Meteorologist, Weather Underground
By Christopher C. Burt
Weather Historian, Weather Underground
September 16, 2014
September 16, 2014
September 16, 2014

Nearby

Épaisseur de neige

Station Depth Altitude
Pas de nouvelles chutes de neige

Activité sismique

Ville Distance Mag. Time & Date
No recent earthquake activity has been reported nearby.
Minimum magnitude displayed is 2.5.

Températures des eaux côtières

Lieu Température
Port Manatee, FL 86.0 ° F
St Petersburg, FL 87.1 ° F
Old Port Tampa, FL 86.0 ° F

Stations météo à proximité